createdAt,value
2023-04-01T00:00:54.853Z,34.00
2023-04-01T00:03:24.579Z,34.58
2023-04-01T00:05:52.828Z,32.92
2023-04-01T00:08:20.746Z,35.90
2023-04-01T00:10:48.581Z,35.17
2023-04-01T00:13:17.318Z,37.38
2023-04-01T00:15:46.816Z,33.30
2023-04-01T00:18:14.925Z,36.50
2023-04-01T00:20:47.395Z,32.42
2023-04-01T00:23:16.255Z,32.15
2023-04-01T00:25:46.361Z,30.83
2023-04-01T00:28:14.009Z,33.88
2023-04-01T00:30:42.352Z,31.33
2023-04-01T00:33:10.116Z,33.20
2023-04-01T00:35:38.850Z,33.22
2023-04-01T00:38:07.692Z,29.13
2023-04-01T00:40:39.369Z,29.58
2023-04-01T00:43:25.693Z,34.35
2023-04-01T00:45:53.351Z,29.45
2023-04-01T00:48:26.615Z,27.85
2023-04-01T00:51:06.419Z,27.85
2023-04-01T00:53:37.990Z,28.65
2023-04-01T00:56:13.864Z,29.13
2023-04-01T00:58:52.961Z,30.40
2023-04-01T01:01:24.330Z,28.73
2023-04-01T01:03:51.996Z,29.25
2023-04-01T01:06:40.145Z,29.38
2023-04-01T01:09:15.596Z,30.95
2023-04-01T01:11:51.862Z,32.67
2023-04-01T01:14:44.719Z,36.35
2023-04-01T01:17:37.363Z,36.80
2023-04-01T01:20:25.959Z,40.63
2023-04-01T01:23:16.199Z,41.17
2023-04-01T01:26:00.497Z,41.55
2023-04-01T01:28:50.309Z,43.65
2023-04-01T01:31:35.032Z,45.67
2023-04-01T01:34:33.788Z,43.33
2023-04-01T01:37:10.829Z,41.28
2023-04-01T01:39:40.774Z,43.10
2023-04-01T01:42:12.751Z,41.75
2023-04-01T01:44:44.106Z,45.08
2023-04-01T01:47:14.598Z,46.78
2023-04-01T01:49:44.531Z,50.17
2023-04-01T01:52:13.857Z,50.58
2023-04-01T01:54:55.749Z,51.33
2023-04-01T02:00:13.903Z,50.30
2023-04-01T02:02:47.199Z,51.42
2023-04-01T02:05:22.885Z,52.38
2023-04-01T02:08:02.768Z,50.35
2023-04-01T02:10:35.426Z,52.25
2023-04-01T02:13:09.009Z,52.22
2023-04-01T02:15:44.368Z,49.95
2023-04-01T02:18:14.449Z,50.53
2023-04-01T02:20:44.346Z,49.92
2023-04-01T02:23:12.983Z,49.63
2023-04-01T02:25:43.440Z,46.08
2023-04-01T02:28:13.409Z,46.30
2023-04-01T02:30:43.943Z,42.70
2023-04-01T02:33:12.414Z,45.03
2023-04-01T02:35:40.437Z,43.45
2023-04-01T02:38:09.746Z,45.50
2023-04-01T02:40:50.635Z,41.70
2023-04-01T02:43:20.042Z,44.88
2023-04-01T02:45:48.069Z,44.40
2023-04-01T02:48:16.121Z,44.30
2023-04-01T02:50:43.826Z,43.03
2023-04-01T02:53:12.355Z,42.05
2023-04-01T02:55:40.452Z,44.28
2023-04-01T02:58:08.544Z,42.40
2023-04-01T03:00:36.466Z,41.15
2023-04-01T03:03:04.931Z,40.90
2023-04-01T03:05:32.847Z,40.47
2023-04-01T03:08:01.057Z,38.63
2023-04-01T03:10:29.160Z,35.80
2023-04-01T03:12:56.855Z,37.55
2023-04-01T03:15:24.938Z,38.10
2023-04-01T03:17:52.638Z,31.80
2023-04-01T03:20:21.349Z,35.38
2023-04-01T03:22:49.477Z,37.70
2023-04-01T03:25:19.675Z,34.40
2023-04-01T03:27:47.244Z,34.33
2023-04-01T03:30:14.848Z,34.53
2023-04-01T03:32:51.579Z,34.00
2023-04-01T03:35:19.532Z,32.30
2023-04-01T03:37:47.994Z,32.40
2023-04-01T03:40:16.215Z,34.83
2023-04-01T03:42:44.245Z,36.13
2023-04-01T03:45:13.105Z,32.50
2023-04-01T03:50:32.823Z,33.40
2023-04-01T03:53:01.223Z,33.47
2023-04-01T03:55:29.401Z,32.53
2023-04-01T03:57:57.515Z,37.33
2023-04-01T04:00:25.184Z,32.78
2023-04-01T04:02:57.735Z,36.33
2023-04-01T04:05:31.409Z,36.75
2023-04-01T04:07:59.739Z,38.80
2023-04-01T04:10:28.106Z,38.65
2023-04-01T04:12:56.219Z,40.95
2023-04-01T04:15:26.542Z,40.15
2023-04-01T04:17:54.165Z,39.40
2023-04-01T04:20:21.835Z,39.83
2023-04-01T04:22:50.233Z,38.65
2023-04-01T04:25:18.432Z,40.60
2023-04-01T04:27:46.561Z,42.03
2023-04-01T04:30:16.208Z,39.83
2023-04-01T04:32:44.280Z,40.53
2023-04-01T04:35:13.315Z,40.28
2023-04-01T04:37:41.938Z,40.38
2023-04-01T04:40:10.170Z,40.65
2023-04-01T04:42:37.892Z,42.65
2023-04-01T04:45:11.876Z,40.65
2023-04-01T04:47:43.364Z,38.00
2023-04-01T04:50:12.808Z,41.70
2023-04-01T04:52:42.493Z,41.58
2023-04-01T04:55:10.668Z,42.40
2023-04-01T04:57:39.340Z,42.83
2023-04-01T05:00:07.682Z,41.65
2023-04-01T05:02:58.020Z,39.13
2023-04-01T05:05:26.218Z,41.90
2023-04-01T05:07:54.407Z,42.08
2023-04-01T05:10:22.178Z,41.15
2023-04-01T05:12:50.929Z,42.58
2023-04-01T05:15:22.568Z,40.25
2023-04-01T05:17:50.363Z,39.28
2023-04-01T05:20:18.732Z,36.90
2023-04-01T05:22:46.378Z,37.50
2023-04-01T05:25:14.162Z,33.90
2023-04-01T05:27:42.652Z,33.42
2023-04-01T05:30:10.942Z,31.58
2023-04-01T05:35:32.498Z,32.35
2023-04-01T05:38:00.886Z,31.98
2023-04-01T05:40:30.290Z,28.70
2023-04-01T05:42:58.534Z,31.05
2023-04-01T05:45:26.275Z,29.33
2023-04-01T05:47:56.727Z,32.20
2023-04-01T05:50:24.817Z,28.42
2023-04-01T05:52:52.541Z,29.55
2023-04-01T05:55:20.645Z,29.40
2023-04-01T05:57:50.576Z,30.92
2023-04-01T06:00:21.034Z,30.85
2023-04-01T06:02:49.301Z,30.83
2023-04-01T06:05:24.214Z,33.50
2023-04-01T06:07:59.348Z,34.30
2023-04-01T06:10:54.130Z,33.92
2023-04-01T06:13:47.235Z,34.67
2023-04-01T06:16:39.542Z,35.90
2023-04-01T06:19:12.180Z,35.10
2023-04-01T06:22:04.439Z,37.10
2023-04-01T06:24:41.893Z,37.67
2023-04-01T06:27:46.592Z,37.20
2023-04-01T06:30:54.505Z,40.08
2023-04-01T06:34:11.612Z,40.35
2023-04-01T06:37:13.559Z,46.38
2023-04-01T06:39:59.732Z,43.50
2023-04-01T06:42:52.228Z,43.20
2023-04-01T06:45:51.076Z,43.47
2023-04-01T06:48:39.928Z,39.78
2023-04-01T06:51:57.710Z,42.47
2023-04-01T06:54:57.202Z,47.65
2023-04-01T06:58:01.509Z,42.47
2023-04-01T07:00:41.099Z,44.05
2023-04-01T07:03:54.766Z,41.47
2023-04-01T07:06:31.660Z,41.35
2023-04-01T07:09:06.625Z,38.47
2023-04-01T07:11:59.021Z,37.88
2023-04-01T07:14:52.446Z,37.30
2023-04-01T07:17:35.176Z,36.42
2023-04-01T07:20:12.345Z,35.60
2023-04-01T07:22:45.804Z,34.58
2023-04-01T07:25:32.755Z,34.97
2023-04-01T07:28:20.339Z,35.42
2023-04-01T07:31:17.001Z,34.60
2023-04-01T07:34:16.395Z,33.10
2023-04-01T07:37:07.102Z,34.08
2023-04-01T07:39:44.798Z,32.03
2023-04-01T07:42:26.385Z,31.30
2023-04-01T07:45:32.261Z,34.90
2023-04-01T07:48:07.121Z,35.90
2023-04-01T07:50:51.892Z,34.58
2023-04-01T07:53:37.994Z,34.20
2023-04-01T07:56:10.836Z,32.22
2023-04-01T07:58:52.855Z,34.00
2023-04-01T08:01:46.458Z,34.08
2023-04-01T08:04:24.617Z,35.05
2023-04-01T08:07:08.019Z,33.08
2023-04-01T08:10:21.332Z,32.08
2023-04-01T08:14:09.312Z,31.60
2023-04-01T08:17:04.049Z,30.27
2023-04-01T08:20:18.748Z,31.23
2023-04-01T08:23:06.657Z,28.65
2023-04-01T08:26:04.162Z,29.08
2023-04-01T08:28:55.882Z,31.55
2023-04-01T08:31:32.460Z,30.17
2023-04-01T08:34:05.911Z,31.48
2023-04-01T08:36:42.160Z,32.17
2023-04-01T08:39:32.462Z,31.58
2023-04-01T08:42:13.583Z,28.83
2023-04-01T08:45:25.865Z,30.88
2023-04-01T08:48:23.569Z,31.00
2023-04-01T08:51:18.664Z,30.10
2023-04-01T08:53:58.623Z,31.52
2023-04-01T08:56:56.208Z,32.08
2023-04-01T08:59:54.744Z,30.90
2023-04-01T09:02:58.347Z,28.20
2023-04-01T09:05:49.009Z,30.48
2023-04-01T09:08:35.597Z,28.38
2023-04-01T09:11:26.963Z,28.13
2023-04-01T09:14:16.985Z,29.35
2023-04-01T09:17:26.215Z,30.30
2023-04-01T09:20:30.779Z,28.05
2023-04-01T09:23:41.676Z,27.27
2023-04-01T09:26:09.549Z,26.30
2023-04-01T09:28:57.454Z,26.10
2023-04-01T09:31:53.777Z,25.27
2023-04-01T09:35:23.053Z,22.85
2023-04-01T09:38:10.845Z,21.77
2023-04-01T09:40:38.553Z,21.00
2023-04-01T09:43:26.982Z,21.30
2023-04-01T09:46:08.250Z,19.90
2023-04-01T09:48:59.482Z,20.80
2023-04-01T09:51:50.935Z,18.00
2023-04-01T09:54:38.117Z,19.55
2023-04-01T09:57:15.359Z,19.00
2023-04-01T10:00:18.418Z,15.10
2023-04-01T10:03:30.071Z,14.65
2023-04-01T10:06:08.737Z,11.95
2023-04-01T10:09:18.733Z,12.90
2023-04-01T10:12:34.659Z,12.00
2023-04-01T10:15:31.346Z,4.88
2023-04-01T10:18:35.785Z,3.80
2023-04-01T10:21:08.124Z,3.97
2023-04-01T10:24:17.190Z,1.75
2023-04-01T10:27:32.222Z,1.73
2023-04-01T10:30:18.255Z,2.22
2023-04-01T10:33:16.499Z,2.58
2023-04-01T10:36:12.182Z,1.70
2023-04-01T10:38:43.308Z,1.75
2023-04-01T10:41:42.453Z,1.75
2023-04-01T10:44:49.988Z,4.53
2023-04-01T10:48:07.859Z,3.25
2023-04-01T10:51:16.027Z,3.08
2023-04-01T10:54:02.656Z,3.45
2023-04-01T10:57:17.831Z,2.42
2023-04-01T11:00:38.555Z,2.90
2023-04-01T11:03:57.716Z,3.45
2023-04-01T11:07:07.767Z,3.70
2023-04-01T11:10:00.485Z,2.00
2023-04-01T11:12:36.155Z,2.10
2023-04-01T11:15:53.588Z,2.67
2023-04-01T11:18:49.549Z,3.00
2023-04-01T11:21:50.728Z,2.85
2023-04-01T11:24:54.878Z,1.83
2023-04-01T11:27:51.831Z,2.00
2023-04-01T11:30:59.772Z,1.45
2023-04-01T11:33:34.777Z,1.33
2023-04-01T11:36:08.795Z,1.60
2023-04-01T11:38:52.336Z,1.95
2023-04-01T11:41:47.393Z,1.50
2023-04-01T11:44:41.114Z,1.42
2023-04-01T11:48:02.283Z,1.50
2023-04-01T11:51:04.990Z,2.35
2023-04-01T11:53:39.276Z,1.80
2023-04-01T11:56:26.376Z,2.22
2023-04-01T11:59:05.537Z,2.30
2023-04-01T12:01:53.479Z,2.67
2023-04-01T12:04:44.157Z,3.08
2023-04-01T12:07:14.776Z,3.35
2023-04-01T12:10:19.914Z,3.72
2023-04-01T12:13:11.373Z,3.63
2023-04-01T12:15:42.725Z,3.30
2023-04-01T12:18:27.371Z,3.53
2023-04-01T12:21:01.938Z,3.42
2023-04-01T12:23:54.217Z,2.95
2023-04-01T12:26:46.427Z,3.20
2023-04-01T12:29:52.094Z,2.55
2023-04-01T12:32:29.380Z,2.28
2023-04-01T12:35:21.579Z,2.22
2023-04-01T12:38:19.158Z,2.53
2023-04-01T12:41:02.224Z,2.05
2023-04-01T12:44:00.869Z,2.22
2023-04-01T12:46:49.504Z,2.45
2023-04-01T12:49:38.887Z,2.22
2023-04-01T12:52:40.528Z,2.42
2023-04-01T12:55:26.641Z,2.60
2023-04-01T12:58:49.135Z,3.00
2023-04-01T13:01:56.008Z,2.53
2023-04-01T13:04:46.205Z,3.47
2023-04-01T13:07:21.418Z,2.92
2023-04-01T13:10:21.634Z,3.13
2023-04-01T13:13:27.249Z,3.50
2023-04-01T13:16:11.204Z,3.35
2023-04-01T13:18:55.090Z,3.30
2023-04-01T13:21:39.894Z,3.80
2023-04-01T13:24:33.257Z,2.83
2023-04-01T13:29:45.474Z,3.47
2023-04-01T13:32:43.246Z,3.50
2023-04-01T13:35:42.405Z,3.40
2023-04-01T13:38:37.785Z,2.42
2023-04-01T13:41:23.011Z,4.10
2023-04-01T13:44:11.030Z,3.85
2023-04-01T13:47:11.864Z,2.33
2023-04-01T13:49:51.739Z,3.03
2023-04-01T13:52:48.363Z,2.05
2023-04-01T13:55:29.234Z,2.50
2023-04-01T13:58:39.418Z,2.00
2023-04-01T14:01:08.750Z,2.55
2023-04-01T14:03:42.411Z,2.80
2023-04-01T14:06:21.672Z,2.40
2023-04-01T14:08:54.926Z,2.22
2023-04-01T14:11:32.085Z,2.63
2023-04-01T14:14:21.141Z,2.25
2023-04-01T14:17:14.240Z,2.05
2023-04-01T14:20:03.501Z,2.17
2023-04-01T14:22:43.969Z,2.03
2023-04-01T14:25:39.814Z,1.75
2023-04-01T14:28:14.018Z,1.83
2023-04-01T14:30:58.948Z,1.92
2023-04-01T14:33:47.414Z,2.20
2023-04-01T14:36:27.294Z,2.05
2023-04-01T14:39:21.139Z,2.10
2023-04-01T14:42:21.514Z,1.73
2023-04-01T14:44:59.175Z,1.80
2023-04-01T14:47:49.373Z,1.70
2023-04-01T14:50:22.353Z,2.45
2023-04-01T14:55:42.998Z,3.22
2023-04-01T14:58:15.871Z,2.42
2023-04-01T15:03:49.070Z,2.80
2023-04-01T15:06:22.519Z,2.50
2023-04-01T15:09:10.309Z,2.90
2023-04-01T15:11:50.297Z,2.75
2023-04-01T15:14:39.726Z,2.92
2023-04-01T15:17:22.208Z,2.70
2023-04-01T15:20:20.696Z,3.00
2023-04-01T15:23:09.370Z,3.80
2023-04-01T15:25:52.360Z,3.67
2023-04-01T15:28:34.803Z,3.42
2023-04-01T15:31:12.451Z,3.33
2023-04-01T15:33:43.127Z,3.42
2023-04-01T15:36:34.188Z,3.20
2023-04-01T15:39:36.998Z,3.42
2023-04-01T15:42:46.516Z,3.50
2023-04-01T15:45:19.766Z,3.00
2023-04-01T15:48:02.322Z,2.58
2023-04-01T15:50:42.452Z,2.03
2023-04-01T15:53:25.816Z,1.60
2023-04-01T15:58:38.691Z,1.00
2023-04-01T16:01:44.208Z,1.27
2023-04-01T16:04:39.437Z,1.75
2023-04-01T16:07:16.395Z,1.40
2023-04-01T16:10:10.674Z,1.20
2023-04-01T16:12:47.902Z,1.10
2023-04-01T16:15:29.491Z,1.20
2023-04-01T16:18:48.389Z,1.38
2023-04-01T16:21:53.584Z,1.40
2023-04-01T16:24:26.534Z,0.95
2023-04-01T16:27:05.338Z,1.17
2023-04-01T16:29:52.520Z,1.00
2023-04-01T16:32:33.273Z,1.08
2023-04-01T16:35:16.222Z,1.42
2023-04-01T16:37:50.452Z,2.10
2023-04-01T16:40:53.718Z,3.70
2023-04-01T16:43:40.385Z,3.13
2023-04-01T16:46:44.807Z,1.90
2023-04-01T16:49:12.678Z,1.60
2023-04-01T16:51:53.207Z,1.98
2023-04-01T16:54:35.696Z,1.50
2023-04-01T16:57:18.158Z,1.55
2023-04-01T17:00:24.522Z,1.13
2023-04-01T17:02:58.901Z,0.85
2023-04-01T17:05:39.060Z,1.45
2023-04-01T17:08:18.579Z,0.95
2023-04-01T17:10:59.370Z,2.13
2023-04-01T17:13:37.416Z,1.60
2023-04-01T17:16:40.171Z,1.33
2023-04-01T17:19:10.779Z,1.05
2023-04-01T17:21:44.661Z,1.00
2023-04-01T17:24:33.085Z,1.20
2023-04-01T17:27:49.638Z,1.40
2023-04-01T17:30:37.579Z,1.80
2023-04-01T17:33:33.309Z,2.58
2023-04-01T17:36:13.415Z,3.20
2023-04-01T17:39:29.639Z,3.65
2023-04-01T17:42:11.063Z,3.85
2023-04-01T17:44:59.182Z,4.80
2023-04-01T17:47:36.573Z,5.47
2023-04-01T17:50:10.498Z,5.40
2023-04-01T17:52:50.259Z,6.72
2023-04-01T17:55:46.393Z,5.97
2023-04-01T17:58:23.515Z,6.70
2023-04-01T18:01:03.226Z,8.82
2023-04-01T18:03:37.303Z,10.55
2023-04-01T18:06:29.756Z,13.18
2023-04-01T18:09:31.788Z,15.10
2023-04-01T18:12:07.026Z,12.15
2023-04-01T18:15:10.803Z,12.68
2023-04-01T18:18:04.170Z,13.10
2023-04-01T18:20:40.979Z,14.67
2023-04-01T18:23:27.257Z,15.00
2023-04-01T18:26:04.448Z,13.00
2023-04-01T18:28:36.125Z,13.77
2023-04-01T18:31:04.145Z,13.60
2023-04-01T18:33:53.923Z,13.98
2023-04-01T18:36:37.379Z,15.77
2023-04-01T18:39:33.826Z,13.68
2023-04-01T18:42:18.326Z,13.35
2023-04-01T18:44:59.086Z,15.32
2023-04-01T18:48:08.257Z,14.60
2023-04-01T18:50:53.264Z,15.00
2023-04-01T18:53:33.048Z,18.15
2023-04-01T18:56:04.858Z,16.25
2023-04-01T18:58:35.613Z,16.33
2023-04-01T19:01:13.702Z,15.02
2023-04-01T19:03:50.959Z,12.65
2023-04-01T19:06:28.685Z,12.88
2023-04-01T19:09:13.215Z,11.93
2023-04-01T19:12:08.732Z,12.43
2023-04-01T19:14:48.514Z,12.68
2023-04-01T19:17:54.591Z,11.23
2023-04-01T19:20:58.503Z,9.32
2023-04-01T19:23:54.942Z,9.70
2023-04-01T19:26:43.100Z,7.82
2023-04-01T19:29:31.710Z,9.80
2023-04-01T19:32:09.859Z,11.70
2023-04-01T19:35:15.685Z,7.85
2023-04-01T19:37:55.592Z,5.88
2023-04-01T19:40:38.344Z,5.85
2023-04-01T19:43:36.692Z,6.85
2023-04-01T19:46:40.494Z,5.25
2023-04-01T19:49:20.561Z,4.83
2023-04-01T19:51:52.605Z,6.38
2023-04-01T19:54:20.140Z,8.70
2023-04-01T19:56:57.025Z,10.95
2023-04-01T19:59:35.961Z,10.73
2023-04-01T20:02:12.178Z,13.80
2023-04-01T20:04:51.997Z,10.65
2023-04-01T20:07:45.021Z,13.80
2023-04-01T20:10:22.341Z,13.52
2023-04-01T20:13:15.370Z,12.57
2023-04-01T20:15:56.236Z,15.40
2023-04-01T20:18:39.585Z,15.38
2023-04-01T20:21:16.379Z,12.70
2023-04-01T20:23:52.629Z,13.32
2023-04-01T20:26:24.399Z,14.02
2023-04-01T20:29:12.770Z,14.05
2023-04-01T20:31:48.681Z,12.05
2023-04-01T20:34:55.107Z,11.52
2023-04-01T20:37:33.448Z,10.93
2023-04-01T20:40:10.689Z,11.48
2023-04-01T20:42:58.984Z,10.02
2023-04-01T20:45:47.774Z,9.77
2023-04-01T20:48:24.269Z,8.43
2023-04-01T20:51:07.265Z,8.70
2023-04-01T20:53:45.006Z,8.03
2023-04-01T20:56:35.480Z,8.30
2023-04-01T20:59:19.104Z,9.25
2023-04-01T21:02:08.465Z,8.50
2023-04-01T21:04:44.185Z,9.65
2023-04-01T21:07:50.971Z,9.40
2023-04-01T21:10:56.448Z,9.98
2023-04-01T21:13:58.343Z,10.60
2023-04-01T21:16:50.733Z,9.90
2023-04-01T21:19:43.506Z,11.75
2023-04-01T21:22:42.714Z,12.35
2023-04-01T21:25:21.248Z,13.65
2023-04-01T21:28:24.900Z,14.60
2023-04-01T21:31:05.806Z,15.68
2023-04-01T21:33:52.182Z,14.20
2023-04-01T21:36:43.087Z,14.35
2023-04-01T21:42:19.937Z,15.95
2023-04-01T21:44:58.144Z,19.70
2023-04-01T21:47:52.784Z,19.80
2023-04-01T21:50:45.107Z,19.00
2023-04-01T21:53:22.017Z,20.30
2023-04-01T21:56:01.014Z,19.80
2023-04-01T21:59:03.766Z,22.30
2023-04-01T22:01:49.782Z,24.02
2023-04-01T22:04:45.855Z,24.63
2023-04-01T22:07:24.708Z,24.95
2023-04-01T22:10:11.082Z,24.10
2023-04-01T22:13:09.350Z,23.35
2023-04-01T22:16:07.444Z,25.25
2023-04-01T22:18:42.069Z,25.33
2023-04-01T22:21:35.940Z,24.65
2023-04-01T22:24:13.003Z,26.27
2023-04-01T22:26:44.354Z,25.10
2023-04-01T22:29:18.040Z,25.75
2023-04-01T22:31:49.142Z,24.73
2023-04-01T22:34:37.144Z,25.45
2023-04-01T22:37:18.485Z,23.58
2023-04-01T22:40:02.089Z,24.65
2023-04-01T22:42:54.667Z,24.75
2023-04-01T22:45:48.090Z,25.70
2023-04-01T22:48:26.874Z,25.92
2023-04-01T22:51:50.071Z,25.33
2023-04-01T22:54:30.146Z,24.92
2023-04-01T22:57:01.349Z,24.27
2023-04-01T22:59:58.493Z,26.50
2023-04-01T23:02:32.077Z,26.67
2023-04-01T23:05:03.473Z,26.65
2023-04-01T23:08:10.914Z,25.80
2023-04-01T23:10:45.752Z,28.73
2023-04-01T23:13:19.721Z,27.58
2023-04-01T23:15:48.981Z,27.40
2023-04-01T23:18:21.571Z,28.55
2023-04-01T23:21:47.496Z,28.38
2023-04-01T23:24:15.122Z,27.00
2023-04-01T23:27:18.342Z,26.77
2023-04-01T23:29:46.430Z,27.55
2023-04-01T23:32:19.335Z,25.40
2023-04-01T23:34:53.636Z,25.73
2023-04-01T23:37:22.372Z,26.33
2023-04-01T23:39:55.089Z,29.40
2023-04-01T23:42:30.265Z,26.73
2023-04-01T23:45:01.890Z,26.88
2023-04-01T23:47:41.307Z,25.85
2023-04-01T23:50:17.766Z,26.48
2023-04-01T23:52:49.442Z,25.90
2023-04-01T23:55:25.420Z,28.15
2023-04-01T23:58:17.783Z,27.25
